Pointe Aux Barques, Michigan
Current Conditions -  °F | °C
As of 10:59 PM on Saturday 25 Oct 2014 (Local Time) from KBAX Reporting Station
Clear Clear  
Wind Chill: 45°   Ceiling: Unl
Heat Index: 47°   Visibility: 10mi
Dew Point: 37°   Wind: 6mph
Humidity: 66%   Direction: 300°WNW
Pressure: 29.77"   Gusts: NA
Location:  44.0077°N, 82.9857°W
Report Text: KBAX 260259Z AUTO 30005KT 10SM CLR 09/03 A2977 RMK AO2 T00850025
Loading
Personal Weather Stations






























Interactive Weather Map
Tropical Storm Tracking
New forecast layout! Learn more

10-Day Weather Forecast

Advertisements
Track Severe Weather on mobile